sensor_id;sensor_type;location;lat;lon;timestamp;P1;durP1;ratioP1;P2;durP2;ratioP2
22606;SDS011;11470;20.968;105.834;2023-08-20T00:01:57;47.50;;;26.75;;
22606;SDS011;11470;20.968;105.834;2023-08-20T00:07:05;48.38;;;30.13;;
22606;SDS011;11470;20.968;105.834;2023-08-20T00:12:14;59.05;;;34.70;;
22606;SDS011;11470;20.968;105.834;2023-08-20T00:17:19;71.75;;;44.67;;
22606;SDS011;11470;20.968;105.834;2023-08-20T00:22:25;47.05;;;31.08;;
22606;SDS011;11470;20.968;105.834;2023-08-20T00:27:30;73.60;;;48.38;;
22606;SDS011;11470;20.968;105.834;2023-08-20T00:32:39;66.68;;;43.35;;
22606;SDS011;11470;20.968;105.834;2023-08-20T00:42:49;64.90;;;41.33;;
22606;SDS011;11470;20.968;105.834;2023-08-20T00:47:56;63.53;;;39.67;;
22606;SDS011;11470;20.968;105.834;2023-08-20T00:53:01;31.17;;;21.67;;
22606;SDS011;11470;20.968;105.834;2023-08-20T00:58:07;51.38;;;32.30;;
22606;SDS011;11470;20.968;105.834;2023-08-20T01:03:12;51.38;;;33.45;;
22606;SDS011;11470;20.968;105.834;2023-08-20T01:08:22;62.78;;;37.53;;
22606;SDS011;11470;20.968;105.834;2023-08-20T01:13:39;54.75;;;34.55;;
22606;SDS011;11470;20.968;105.834;2023-08-20T01:23:56;42.60;;;28.40;;
22606;SDS011;11470;20.968;105.834;2023-08-20T01:34:23;41.28;;;23.55;;
22606;SDS011;11470;20.968;105.834;2023-08-20T01:39:28;17.95;;;14.43;;
22606;SDS011;11470;20.968;105.834;2023-08-20T01:49:39;33.28;;;19.60;;
22606;SDS011;11470;20.968;105.834;2023-08-20T01:54:43;27.60;;;20.38;;
22606;SDS011;11470;20.968;105.834;2023-08-20T02:04:54;31.02;;;21.13;;
22606;SDS011;11470;20.968;105.834;2023-08-20T02:09:59;25.38;;;17.00;;
22606;SDS011;11470;20.968;105.834;2023-08-20T02:15:05;16.70;;;13.43;;
22606;SDS011;11470;20.968;105.834;2023-08-20T02:20:12;14.73;;;11.80;;
22606;SDS011;11470;20.968;105.834;2023-08-20T02:25:17;14.30;;;12.52;;
22606;SDS011;11470;20.968;105.834;2023-08-20T02:30:23;17.07;;;13.13;;
22606;SDS011;11470;20.968;105.834;2023-08-20T02:35:28;15.50;;;11.40;;
22606;SDS011;11470;20.968;105.834;2023-08-20T02:40:38;14.77;;;12.77;;
22606;SDS011;11470;20.968;105.834;2023-08-20T02:45:46;20.40;;;12.50;;
22606;SDS011;11470;20.968;105.834;2023-08-20T02:50:53;16.95;;;12.73;;
22606;SDS011;11470;20.968;105.834;2023-08-20T02:55:58;11.68;;;6.38;;
22606;SDS011;11470;20.968;105.834;2023-08-20T03:01:03;13.82;;;9.90;;
22606;SDS011;11470;20.968;105.834;2023-08-20T03:06:09;15.48;;;11.32;;
22606;SDS011;11470;20.968;105.834;2023-08-20T03:11:14;14.87;;;8.83;;
22606;SDS011;11470;20.968;105.834;2023-08-20T03:16:19;19.05;;;10.18;;
22606;SDS011;11470;20.968;105.834;2023-08-20T03:21:24;12.68;;;9.85;;
22606;SDS011;11470;20.968;105.834;2023-08-20T03:26:29;14.38;;;8.10;;
22606;SDS011;11470;20.968;105.834;2023-08-20T03:31:34;15.70;;;11.43;;
22606;SDS011;11470;20.968;105.834;2023-08-20T03:36:40;13.05;;;10.43;;
22606;SDS011;11470;20.968;105.834;2023-08-20T03:41:46;14.30;;;11.25;;
22606;SDS011;11470;20.968;105.834;2023-08-20T03:46:52;14.02;;;9.45;;
22606;SDS011;11470;20.968;105.834;2023-08-20T03:51:57;13.85;;;10.98;;
22606;SDS011;11470;20.968;105.834;2023-08-20T03:57:05;13.20;;;9.88;;
22606;SDS011;11470;20.968;105.834;2023-08-20T04:02:10;11.43;;;9.40;;
22606;SDS011;11470;20.968;105.834;2023-08-20T04:07:15;11.65;;;9.23;;
22606;SDS011;11470;20.968;105.834;2023-08-20T04:12:22;12.55;;;9.82;;
22606;SDS011;11470;20.968;105.834;2023-08-20T04:17:26;8.45;;;6.13;;
22606;SDS011;11470;20.968;105.834;2023-08-20T04:22:32;11.55;;;9.20;;
22606;SDS011;11470;20.968;105.834;2023-08-20T04:27:36;10.90;;;8.10;;
22606;SDS011;11470;20.968;105.834;2023-08-20T04:32:42;9.43;;;7.63;;
22606;SDS011;11470;20.968;105.834;2023-08-20T04:37:50;8.63;;;6.88;;
22606;SDS011;11470;20.968;105.834;2023-08-20T04:42:55;7.83;;;4.83;;
22606;SDS011;11470;20.968;105.834;2023-08-20T04:48:02;7.10;;;3.92;;
22606;SDS011;11470;20.968;105.834;2023-08-20T04:53:08;7.93;;;4.95;;
22606;SDS011;11470;20.968;105.834;2023-08-20T04:58:13;5.80;;;3.97;;
22606;SDS011;11470;20.968;105.834;2023-08-20T05:03:20;6.75;;;4.28;;
22606;SDS011;11470;20.968;105.834;2023-08-20T05:08:25;5.60;;;3.80;;
22606;SDS011;11470;20.968;105.834;2023-08-20T05:13:31;1.48;;;1.38;;
22606;SDS011;11470;20.968;105.834;2023-08-20T05:18:36;1.15;;;0.80;;
22606;SDS011;11470;20.968;105.834;2023-08-20T05:23:41;5.00;;;2.00;;
22606;SDS011;11470;20.968;105.834;2023-08-20T05:28:46;3.63;;;1.80;;
22606;SDS011;11470;20.968;105.834;2023-08-20T05:33:51;3.07;;;1.93;;
22606;SDS011;11470;20.968;105.834;2023-08-20T05:38:57;5.43;;;3.03;;
22606;SDS011;11470;20.968;105.834;2023-08-20T05:44:04;17.45;;;8.40;;
22606;SDS011;11470;20.968;105.834;2023-08-20T05:49:11;5.32;;;2.70;;
22606;SDS011;11470;20.968;105.834;2023-08-20T05:54:20;2.33;;;1.65;;
22606;SDS011;11470;20.968;105.834;2023-08-20T05:59:30;1.65;;;1.10;;
22606;SDS011;11470;20.968;105.834;2023-08-20T06:04:36;2.65;;;2.05;;
22606;SDS011;11470;20.968;105.834;2023-08-20T06:09:41;3.10;;;2.00;;
22606;SDS011;11470;20.968;105.834;2023-08-20T06:14:46;3.33;;;1.73;;
22606;SDS011;11470;20.968;105.834;2023-08-20T06:19:51;0.32;;;0.32;;
22606;SDS011;11470;20.968;105.834;2023-08-20T06:24:58;2.47;;;1.40;;
22606;SDS011;11470;20.968;105.834;2023-08-20T06:30:47;1.65;;;0.65;;
22606;SDS011;11470;20.968;105.834;2023-08-20T06:35:59;3.45;;;1.70;;
22606;SDS011;11470;20.968;105.834;2023-08-20T06:41:09;2.15;;;0.95;;
22606;SDS011;11470;20.968;105.834;2023-08-20T06:53:14;2.83;;;1.60;;
22606;SDS011;11470;20.968;105.834;2023-08-20T07:03:57;3.60;;;2.40;;
22606;SDS011;11470;20.968;105.834;2023-08-20T07:09:06;5.35;;;2.15;;
22606;SDS011;11470;20.968;105.834;2023-08-20T07:14:12;2.80;;;1.73;;
22606;SDS011;11470;20.968;105.834;2023-08-20T07:25:00;3.30;;;2.10;;
22606;SDS011;11470;20.968;105.834;2023-08-20T07:30:06;5.07;;;2.22;;
22606;SDS011;11470;20.968;105.834;2023-08-20T07:35:12;5.43;;;2.20;;
22606;SDS011;11470;20.968;105.834;2023-08-20T07:40:18;3.75;;;1.83;;
22606;SDS011;11470;20.968;105.834;2023-08-20T07:45:23;4.32;;;2.63;;
22606;SDS011;11470;20.968;105.834;2023-08-20T07:50:29;2.90;;;2.10;;
22606;SDS011;11470;20.968;105.834;2023-08-20T07:56:15;2.85;;;2.05;;
22606;SDS011;11470;20.968;105.834;2023-08-20T08:01:20;2.78;;;2.35;;
22606;SDS011;11470;20.968;105.834;2023-08-20T08:06:29;2.92;;;2.05;;
22606;SDS011;11470;20.968;105.834;2023-08-20T08:11:34;3.50;;;2.05;;
22606;SDS011;11470;20.968;105.834;2023-08-20T08:33:32;3.63;;;2.95;;
22606;SDS011;11470;20.968;105.834;2023-08-20T08:50:55;9.27;;;5.80;;
22606;SDS011;11470;20.968;105.834;2023-08-20T09:06:55;8.13;;;6.57;;
22606;SDS011;11470;20.968;105.834;2023-08-20T09:12:15;7.20;;;4.88;;
22606;SDS011;11470;20.968;105.834;2023-08-20T09:17:41;7.13;;;5.55;;
22606;SDS011;11470;20.968;105.834;2023-08-20T09:22:55;10.32;;;6.97;;
22606;SDS011;11470;20.968;105.834;2023-08-20T09:55:34;20.60;;;15.73;;
22606;SDS011;11470;20.968;105.834;2023-08-20T10:25:01;16.38;;;14.68;;
22606;SDS011;11470;20.968;105.834;2023-08-20T10:31:46;11.02;;;8.75;;
22606;SDS011;11470;20.968;105.834;2023-08-20T10:36:54;11.63;;;10.25;;
22606;SDS011;11470;20.968;105.834;2023-08-20T10:42:09;10.18;;;7.43;;
22606;SDS011;11470;20.968;105.834;2023-08-20T10:52:48;11.60;;;8.05;;
22606;SDS011;11470;20.968;105.834;2023-08-20T10:58:03;14.15;;;12.05;;
22606;SDS011;11470;20.968;105.834;2023-08-20T11:08:56;16.30;;;11.30;;
22606;SDS011;11470;20.968;105.834;2023-08-20T11:14:13;15.88;;;12.50;;
22606;SDS011;11470;20.968;105.834;2023-08-20T11:19:23;15.07;;;12.80;;
22606;SDS011;11470;20.968;105.834;2023-08-20T11:24:44;17.95;;;14.45;;
22606;SDS011;11470;20.968;105.834;2023-08-20T11:29:52;13.73;;;12.30;;
22606;SDS011;11470;20.968;105.834;2023-08-20T11:35:44;14.27;;;12.82;;
22606;SDS011;11470;20.968;105.834;2023-08-20T11:41:28;17.90;;;14.80;;
22606;SDS011;11470;20.968;105.834;2023-08-20T11:52:52;18.60;;;14.55;;
22606;SDS011;11470;20.968;105.834;2023-08-20T12:04:03;27.00;;;20.73;;
22606;SDS011;11470;20.968;105.834;2023-08-20T12:09:27;22.90;;;18.15;;
22606;SDS011;11470;20.968;105.834;2023-08-20T12:21:01;19.95;;;15.23;;
22606;SDS011;11470;20.968;105.834;2023-08-20T12:26:07;19.88;;;17.33;;
22606;SDS011;11470;20.968;105.834;2023-08-20T12:31:13;17.17;;;13.82;;
22606;SDS011;11470;20.968;105.834;2023-08-20T12:36:18;16.48;;;13.52;;
22606;SDS011;11470;20.968;105.834;2023-08-20T12:41:46;14.45;;;12.02;;
22606;SDS011;11470;20.968;105.834;2023-08-20T12:46:51;22.42;;;13.48;;
22606;SDS011;11470;20.968;105.834;2023-08-20T12:51:57;22.80;;;14.50;;
22606;SDS011;11470;20.968;105.834;2023-08-20T12:57:05;22.48;;;14.00;;
22606;SDS011;11470;20.968;105.834;2023-08-20T13:03:09;27.17;;;15.15;;
22606;SDS011;11470;20.968;105.834;2023-08-20T13:08:19;23.00;;;14.90;;
22606;SDS011;11470;20.968;105.834;2023-08-20T13:13:27;17.95;;;13.18;;
22606;SDS011;11470;20.968;105.834;2023-08-20T13:18:33;17.20;;;14.38;;
22606;SDS011;11470;20.968;105.834;2023-08-20T13:30:41;15.07;;;12.38;;
22606;SDS011;11470;20.968;105.834;2023-08-20T13:42:45;15.68;;;11.73;;
22606;SDS011;11470;20.968;105.834;2023-08-20T13:48:05;15.25;;;11.63;;
22606;SDS011;11470;20.968;105.834;2023-08-20T14:12:42;13.32;;;9.60;;
22606;SDS011;11470;20.968;105.834;2023-08-20T14:17:55;13.40;;;10.25;;
22606;SDS011;11470;20.968;105.834;2023-08-20T14:49:20;9.63;;;8.32;;
22606;SDS011;11470;20.968;105.834;2023-08-20T14:54:29;12.32;;;9.05;;
22606;SDS011;11470;20.968;105.834;2023-08-20T14:59:34;10.77;;;6.67;;
22606;SDS011;11470;20.968;105.834;2023-08-20T15:41:57;14.65;;;11.90;;
22606;SDS011;11470;20.968;105.834;2023-08-20T15:47:03;14.70;;;12.00;;
22606;SDS011;11470;20.968;105.834;2023-08-20T15:57:14;14.05;;;9.82;;
22606;SDS011;11470;20.968;105.834;2023-08-20T16:02:20;17.88;;;13.50;;
22606;SDS011;11470;20.968;105.834;2023-08-20T16:14:53;11.98;;;9.52;;
22606;SDS011;11470;20.968;105.834;2023-08-20T16:26:18;14.10;;;10.90;;
22606;SDS011;11470;20.968;105.834;2023-08-20T16:31:30;13.45;;;10.00;;
22606;SDS011;11470;20.968;105.834;2023-08-20T16:44:04;15.23;;;10.52;;
22606;SDS011;11470;20.968;105.834;2023-08-20T16:56:33;17.95;;;11.20;;
22606;SDS011;11470;20.968;105.834;2023-08-20T17:01:46;16.35;;;9.75;;
22606;SDS011;11470;20.968;105.834;2023-08-20T17:06:52;15.23;;;10.68;;
22606;SDS011;11470;20.968;105.834;2023-08-20T17:11:57;15.30;;;10.30;;
22606;SDS011;11470;20.968;105.834;2023-08-20T17:17:03;13.88;;;10.13;;
22606;SDS011;11470;20.968;105.834;2023-08-20T17:22:09;13.23;;;9.98;;
22606;SDS011;11470;20.968;105.834;2023-08-20T17:27:15;13.55;;;10.05;;
22606;SDS011;11470;20.968;105.834;2023-08-20T17:32:23;14.37;;;10.60;;
22606;SDS011;11470;20.968;105.834;2023-08-20T17:37:56;13.48;;;10.40;;
22606;SDS011;11470;20.968;105.834;2023-08-20T17:49:00;19.10;;;13.18;;
22606;SDS011;11470;20.968;105.834;2023-08-20T17:54:05;19.67;;;13.05;;
22606;SDS011;11470;20.968;105.834;2023-08-20T17:59:12;27.38;;;17.33;;
22606;SDS011;11470;20.968;105.834;2023-08-20T18:04:17;22.10;;;15.80;;
22606;SDS011;11470;20.968;105.834;2023-08-20T18:09:22;23.90;;;16.53;;
22606;SDS011;11470;20.968;105.834;2023-08-20T18:15:07;33.60;;;22.13;;
22606;SDS011;11470;20.968;105.834;2023-08-20T18:20:17;31.10;;;19.13;;
22606;SDS011;11470;20.968;105.834;2023-08-20T18:25:25;32.25;;;20.05;;
22606;SDS011;11470;20.968;105.834;2023-08-20T18:30:32;30.50;;;17.67;;
22606;SDS011;11470;20.968;105.834;2023-08-20T18:40:42;22.33;;;15.50;;
22606;SDS011;11470;20.968;105.834;2023-08-20T18:45:47;21.40;;;14.80;;
22606;SDS011;11470;20.968;105.834;2023-08-20T18:50:58;20.23;;;13.85;;
22606;SDS011;11470;20.968;105.834;2023-08-20T18:56:04;25.35;;;15.07;;
22606;SDS011;11470;20.968;105.834;2023-08-20T19:01:10;24.25;;;16.70;;
22606;SDS011;11470;20.968;105.834;2023-08-20T19:11:20;20.30;;;15.65;;
22606;SDS011;11470;20.968;105.834;2023-08-20T19:16:25;21.95;;;14.73;;
22606;SDS011;11470;20.968;105.834;2023-08-20T19:21:31;23.25;;;15.55;;
22606;SDS011;11470;20.968;105.834;2023-08-20T19:31:42;27.10;;;18.58;;
22606;SDS011;11470;20.968;105.834;2023-08-20T19:36:47;25.73;;;19.52;;
22606;SDS011;11470;20.968;105.834;2023-08-20T19:41:54;28.40;;;18.42;;
22606;SDS011;11470;20.968;105.834;2023-08-20T19:52:04;25.40;;;16.48;;
22606;SDS011;11470;20.968;105.834;2023-08-20T19:57:09;21.33;;;15.90;;
22606;SDS011;11470;20.968;105.834;2023-08-20T20:02:16;21.95;;;14.35;;
22606;SDS011;11470;20.968;105.834;2023-08-20T20:07:21;23.10;;;14.90;;
22606;SDS011;11470;20.968;105.834;2023-08-20T20:12:26;20.10;;;14.07;;
22606;SDS011;11470;20.968;105.834;2023-08-20T20:17:32;22.17;;;15.32;;
22606;SDS011;11470;20.968;105.834;2023-08-20T20:22:39;22.90;;;14.77;;
22606;SDS011;11470;20.968;105.834;2023-08-20T20:27:45;22.73;;;14.77;;
22606;SDS011;11470;20.968;105.834;2023-08-20T20:37:56;21.80;;;13.63;;
22606;SDS011;11470;20.968;105.834;2023-08-20T20:43:04;16.23;;;12.02;;
22606;SDS011;11470;20.968;105.834;2023-08-20T20:48:09;30.02;;;19.73;;
22606;SDS011;11470;20.968;105.834;2023-08-20T20:53:15;56.40;;;31.15;;
22606;SDS011;11470;20.968;105.834;2023-08-20T20:58:20;37.05;;;20.65;;
22606;SDS011;11470;20.968;105.834;2023-08-20T21:03:26;34.40;;;19.70;;
22606;SDS011;11470;20.968;105.834;2023-08-20T21:08:32;51.53;;;26.35;;
22606;SDS011;11470;20.968;105.834;2023-08-20T21:13:38;43.95;;;26.63;;
22606;SDS011;11470;20.968;105.834;2023-08-20T21:18:43;61.90;;;33.75;;
22606;SDS011;11470;20.968;105.834;2023-08-20T21:23:48;61.03;;;31.33;;
22606;SDS011;11470;20.968;105.834;2023-08-20T21:28:59;62.00;;;32.75;;
22606;SDS011;11470;20.968;105.834;2023-08-20T21:34:07;84.50;;;46.17;;
22606;SDS011;11470;20.968;105.834;2023-08-20T21:39:12;82.28;;;46.03;;
22606;SDS011;11470;20.968;105.834;2023-08-20T21:44:17;66.93;;;38.20;;
22606;SDS011;11470;20.968;105.834;2023-08-20T21:49:23;64.55;;;43.53;;
22606;SDS011;11470;20.968;105.834;2023-08-20T21:54:31;57.60;;;36.47;;
22606;SDS011;11470;20.968;105.834;2023-08-20T22:04:42;59.80;;;37.37;;
22606;SDS011;11470;20.968;105.834;2023-08-20T22:14:53;61.00;;;35.33;;
22606;SDS011;11470;20.968;105.834;2023-08-20T22:19:58;64.75;;;41.60;;
22606;SDS011;11470;20.968;105.834;2023-08-20T22:25:06;49.83;;;33.90;;
22606;SDS011;11470;20.968;105.834;2023-08-20T22:30:12;67.20;;;41.22;;
22606;SDS011;11470;20.968;105.834;2023-08-20T22:35:18;63.63;;;38.58;;
22606;SDS011;11470;20.968;105.834;2023-08-20T22:40:23;66.03;;;38.28;;
22606;SDS011;11470;20.968;105.834;2023-08-20T22:45:29;56.85;;;34.15;;
22606;SDS011;11470;20.968;105.834;2023-08-20T22:50:35;62.45;;;37.95;;
22606;SDS011;11470;20.968;105.834;2023-08-20T22:55:40;56.80;;;35.75;;
22606;SDS011;11470;20.968;105.834;2023-08-20T23:00:46;55.05;;;36.75;;
22606;SDS011;11470;20.968;105.834;2023-08-20T23:05:52;51.17;;;34.55;;
22606;SDS011;11470;20.968;105.834;2023-08-20T23:10:58;57.03;;;36.67;;
22606;SDS011;11470;20.968;105.834;2023-08-20T23:16:03;60.72;;;37.65;;
22606;SDS011;11470;20.968;105.834;2023-08-20T23:21:08;51.88;;;32.17;;
22606;SDS011;11470;20.968;105.834;2023-08-20T23:26:14;53.75;;;34.60;;
22606;SDS011;11470;20.968;105.834;2023-08-20T23:31:20;57.92;;;34.75;;
22606;SDS011;11470;20.968;105.834;2023-08-20T23:36:25;62.88;;;36.97;;
22606;SDS011;11470;20.968;105.834;2023-08-20T23:41:31;57.70;;;35.60;;
22606;SDS011;11470;20.968;105.834;2023-08-20T23:52:02;60.53;;;37.00;;
22606;SDS011;11470;20.968;105.834;2023-08-20T23:57:20;65.20;;;38.25;;
